Terminal Aerodrome Forecast
Issued by NWS

Home | Current Version | Previous Version | Text Only | Print | Product List | Glossary On
Versions: 1 2 3 4 5 6 7 8 9 10 11 12 13 14 15 16
178
FTUS43 KICT 240522
TAFCNU
TAF
KCNU 240522Z 2406/2506 14007KT P6SM BKN030
     FM241500 15010KT P6SM VCTS OVC030CB
     FM241900 17016G23KT P6SM BKN035=

USA.gov is the U.S. government's official web portal to all federal, state and local government web resources and services.